Time;durP1;ratioP1;P1;durP2;ratioP2;P2;SDS_P1;SDS_P2;PMS_P1;PMS_P2;Temp;Humidity;BMP_temperature;BMP_pressure;BME280_temperature;BME280_humidity;BME280_pressure;Samples;Min_cycle;Max_cycle;Signal;HPM_P1;HPM_P2
2023/01/30 00:01:26;;;;;;;37.30;18.95;;;;;;;8.33;58.57;101762.97;4977171;28;114998;-72
2023/01/30 00:03:53;;;;;;;34.60;19.15;;;;;;;8.35;58.18;101740.06;4958152;28;124613;-72
2023/01/30 00:06:21;;;;;;;36.22;19.77;;;;;;;8.38;58.38;101734.72;4963744;28;123691;-72
2023/01/30 00:08:48;;;;;;;35.55;19.20;;;;;;;8.42;58.59;101734.66;4971740;28;114119;-72
2023/01/30 00:11:18;;;;;;;34.92;17.77;;;;;;;8.44;58.60;101732.84;4980940;28;113436;-71
2023/01/30 00:13:47;;;;;;;37.97;18.60;;;;;;;8.45;58.62;101729.34;4979424;28;123970;-72
2023/01/30 00:16:14;;;;;;;34.88;17.52;;;;;;;8.48;58.86;101734.56;4970116;28;124825;-71
2023/01/30 00:18:42;;;;;;;37.35;17.70;;;;;;;8.49;58.59;101720.44;4966518;28;113357;-71
2023/01/30 00:21:12;;;;;;;36.80;18.08;;;;;;;8.50;58.63;101727.47;4959170;28;114029;-71
2023/01/30 00:23:39;;;;;;;31.83;17.90;;;;;;;8.52;58.93;101715.09;4965353;28;123962;-71
2023/01/30 00:26:08;;;;;;;30.05;16.67;;;;;;;8.53;58.62;101728.28;4957482;28;124017;-72
2023/01/30 00:28:38;;;;;;;32.47;16.88;;;;;;;8.56;58.86;101727.31;4965436;28;114135;-72
2023/01/30 00:31:06;;;;;;;36.72;17.83;;;;;;;8.58;58.80;101731.66;4962899;28;113850;-71
2023/01/30 00:33:35;;;;;;;32.63;17.42;;;;;;;8.61;59.03;101720.19;4968230;28;123612;-72
2023/01/30 00:36:03;;;;;;;29.17;16.20;;;;;;;8.65;58.85;101713.06;4966773;28;124795;-71
2023/01/30 00:38:30;;;;;;;35.67;17.13;;;;;;;8.66;59.21;101710.34;4964685;28;113655;-72
2023/01/30 00:40:57;;;;;;;31.60;16.83;;;;;;;8.69;59.12;101702.38;4966407;28;114499;-72
2023/01/30 00:49:08;;;;;;;30.50;16.20;;;;;;;8.79;58.92;101707.44;4984624;28;114938;-71
2023/01/30 00:51:35;;;;;;;31.42;16.05;;;;;;;8.81;59.01;101700.34;4963150;28;114950;-71
2023/01/30 00:54:03;;;;;;;29.77;16.33;;;;;;;8.84;58.88;101695.00;4971012;28;124079;-72
2023/01/30 00:56:30;;;;;;;30.20;17.10;;;;;;;8.87;58.91;101705.47;4979355;28;123070;-72
2023/01/30 00:58:58;;;;;;;33.42;16.75;;;;;;;8.91;59.22;101696.56;4961385;28;113430;-71
2023/01/30 01:01:25;;;;;;;34.28;17.00;;;;;;;8.94;59.34;101680.66;4966118;28;114611;-71
2023/01/30 01:03:52;;;;;;;33.97;17.52;;;;;;;8.96;59.03;101690.25;4964814;28;124782;-72
2023/01/30 01:06:19;;;;;;;29.27;16.15;;;;;;;8.99;59.54;101689.34;4967694;28;125045;-72
2023/01/30 01:08:46;;;;;;;32.58;17.05;;;;;;;9.02;59.27;101678.66;4963971;28;114995;-72
2023/01/30 01:11:23;;;;;;;30.70;17.58;;;;;;;9.05;59.42;101693.59;4970539;28;114294;-72
2023/01/30 01:14:00;;;;;;;36.10;17.27;;;;;;;9.08;59.29;101678.53;4974630;28;122970;-72
2023/01/30 01:16:30;;;;;;;33.58;17.05;;;;;;;9.12;59.39;101669.63;4958571;28;123032;-72
2023/01/30 01:18:58;;;;;;;31.48;16.52;;;;;;;9.15;59.48;101664.25;4974176;28;113216;-72
2023/01/30 01:21:25;;;;;;;38.40;18.35;;;;;;;9.19;59.41;101669.44;4962812;28;114111;-72
2023/01/30 01:23:58;;;;;;;36.70;17.75;;;;;;;9.22;59.50;101674.66;4970139;28;122302;-72
2023/01/30 01:26:26;;;;;;;33.63;17.73;;;;;;;9.25;59.31;101674.56;4969597;28;121920;-71
2023/01/30 01:28:57;;;;;;;31.35;17.23;;;;;;;9.27;59.47;101662.22;4985631;28;114417;-72
2023/01/30 01:31:25;;;;;;;34.75;17.55;;;;;;;9.29;59.58;101661.25;4969547;28;114701;-71
2023/01/30 01:33:54;;;;;;;35.70;17.88;;;;;;;9.32;59.58;101655.00;4987192;28;125017;-72
2023/01/30 01:36:21;;;;;;;36.00;18.15;;;;;;;9.33;59.52;101662.91;4960838;28;124187;-71
2023/01/30 01:39:09;;;;;;;34.65;17.58;;;;;;;9.37;59.60;101658.41;4966151;28;115045;-72
2023/01/30 01:41:36;;;;;;;31.98;16.63;;;;;;;9.40;59.53;101657.44;4943787;28;115444;-71
2023/01/30 01:44:09;;;;;;;32.33;17.65;;;;;;;9.41;59.42;101664.47;4959682;28;123816;-72
2023/01/30 01:46:55;;;;;;;34.42;18.08;;;;;;;9.44;59.35;101653.81;4978440;28;123876;-72
2023/01/30 01:49:29;;;;;;;30.40;17.08;;;;;;;9.43;59.61;101637.06;4967787;28;114183;-72
2023/01/30 01:52:02;;;;;;;30.55;17.02;;;;;;;9.46;59.38;101631.72;4958946;28;114075;-72
2023/01/30 01:54:45;;;;;;;32.22;17.77;;;;;;;9.48;59.39;101629.88;4959748;28;125317;-72
2023/01/30 01:57:21;;;;;;;26.73;15.75;;;;;;;9.50;59.36;101622.78;4979107;28;124602;-72
2023/01/30 01:59:54;;;;;;;29.48;16.02;;;;;;;9.52;59.46;101602.44;4978872;28;114217;-72
2023/01/30 02:02:22;;;;;;;32.05;17.17;;;;;;;9.55;59.63;101615.59;4962700;28;113997;-71
2023/01/30 02:05:03;;;;;;;25.73;16.05;;;;;;;9.55;59.63;101594.44;4959679;28;123256;-72
2023/01/30 02:07:39;;;;;;;28.35;16.65;;;;;;;9.59;59.43;101599.63;4961875;28;123830;-72
2023/01/30 02:10:12;;;;;;;30.27;16.50;;;;;;;9.60;59.68;101602.22;4961972;28;113443;-72
2023/01/30 02:12:39;;;;;;;29.13;17.15;;;;;;;9.62;59.42;101595.09;4973052;28;112979;-72
2023/01/30 02:15:08;;;;;;;31.73;17.30;;;;;;;9.64;59.29;101597.72;4979141;28;124315;-72
2023/01/30 02:17:35;;;;;;;31.00;17.63;;;;;;;9.65;59.62;101597.66;4964240;28;124694;-71
2023/01/30 02:20:15;;;;;;;29.83;17.80;;;;;;;9.67;59.71;101597.63;4965473;28;114327;-72
2023/01/30 02:23:22;;;;;;;32.60;17.33;;;;;;;9.68;59.65;101588.78;4963345;28;113174;-72
2023/01/30 02:26:14;;;;;;;30.10;17.48;;;;;;;9.69;59.87;101585.22;4958894;28;124163;-72
2023/01/30 02:29:15;;;;;;;31.40;16.67;;;;;;;9.69;59.73;101579.94;4987817;28;124127;-72
2023/01/30 02:31:52;;;;;;;32.97;17.45;;;;;;;9.69;59.54;101579.94;4977253;28;114570;-72
2023/01/30 02:34:47;;;;;;;32.00;17.50;;;;;;;9.70;59.90;101576.38;4959946;28;115220;-72
2023/01/30 02:37:43;;;;;;;33.45;16.77;;;;;;;9.71;59.91;101573.69;4980454;28;123935;-72
2023/01/30 02:40:17;;;;;;;;;;;;;;;9.70;59.87;101566.69;4963404;28;125501;-71
2023/01/30 02:43:07;;;;;;;30.73;16.65;;;;;;;9.71;59.59;101551.66;4980023;28;115433;-71
2023/01/30 02:45:46;;;;;;;32.90;16.45;;;;;;;9.72;60.06;101553.41;4965456;28;114337;-72
2023/01/30 02:48:23;;;;;;;31.23;17.15;;;;;;;9.72;59.79;101559.56;4981399;28;123586;-72
2023/01/30 02:51:04;;;;;;;31.00;17.02;;;;;;;9.73;59.91;101560.41;4960163;28;123754;-72
2023/01/30 02:53:32;;;;;;;29.02;15.35;;;;;;;9.76;60.08;101555.03;4977684;28;113594;-71
2023/01/30 02:56:00;;;;;;;30.33;17.02;;;;;;;9.78;59.80;101552.34;4980626;28;113817;-72
2023/01/30 02:58:33;;;;;;;31.98;18.48;;;;;;;9.78;60.18;101547.94;4962359;28;124360;-72
2023/01/30 03:01:27;;;;;;;33.83;19.30;;;;;;;9.79;60.19;101539.06;4977834;28;124051;-72
2023/01/30 03:04:30;;;;;;;30.23;18.42;;;;;;;9.81;60.19;101531.09;4959038;28;114300;-71
2023/01/30 03:07:20;;;;;;;30.02;17.65;;;;;;;9.80;60.02;101530.22;4974922;28;113575;-72
2023/01/30 03:10:00;;;;;;;33.83;18.17;;;;;;;9.80;60.07;101535.50;4956270;28;123071;-72
2023/01/30 03:12:43;;;;;;;29.40;17.70;;;;;;;9.80;60.33;101534.66;4976042;28;123817;-72
2023/01/30 03:15:19;;;;;;;29.42;17.73;;;;;;;9.79;60.16;101533.75;4959570;28;113731;-72
2023/01/30 03:17:47;;;;;;;28.95;18.60;;;;;;;9.79;60.20;101517.91;4979811;28;114124;-72
2023/01/30 03:20:18;;;;;;;33.08;18.30;;;;;;;9.79;60.32;101523.19;4980722;28;123850;-71
2023/01/30 03:22:46;;;;;;;31.45;17.95;;;;;;;9.78;60.35;101526.75;4961871;28;123200;-72
2023/01/30 03:25:17;;;;;;;34.38;18.60;;;;;;;9.77;60.60;101516.22;4963715;28;115330;-72
2023/01/30 03:27:46;;;;;;;30.08;17.35;;;;;;;9.77;60.67;101519.72;4962629;28;114592;-72
2023/01/30 03:30:13;;;;;;;35.60;18.40;;;;;;;9.78;60.67;101521.47;4959957;28;123849;-71
2023/01/30 03:32:41;;;;;;;31.95;17.52;;;;;;;9.79;60.71;101517.91;4959126;28;123503;-72
2023/01/30 03:35:08;;;;;;;29.60;18.67;;;;;;;9.78;60.81;101521.47;4954022;28;113424;-72
2023/01/30 03:37:35;;;;;;;29.42;17.80;;;;;;;9.78;60.74;101516.19;4952587;28;114629;-72
2023/01/30 03:40:03;;;;;;;32.30;18.73;;;;;;;9.77;60.96;101500.34;4960156;28;124407;-72
2023/01/30 03:42:31;;;;;;;31.90;18.67;;;;;;;9.76;61.19;101502.13;4974646;28;123311;-72
2023/01/30 03:44:58;;;;;;;32.35;18.67;;;;;;;9.75;60.81;101500.38;4954137;28;113661;-71
2023/01/30 03:47:26;;;;;;;32.90;19.08;;;;;;;9.74;60.96;101498.69;4963139;28;113019;-72
2023/01/30 03:49:54;;;;;;;32.63;19.10;;;;;;;9.75;61.20;101500.38;4979120;28;123499;-72
2023/01/30 03:52:21;;;;;;;32.45;19.00;;;;;;;9.75;61.35;101500.38;4966315;28;123177;-72
2023/01/30 03:54:48;;;;;;;33.42;18.70;;;;;;;9.74;61.32;101490.75;4963999;28;113293;-72
2023/01/30 03:57:15;;;;;;;30.23;18.02;;;;;;;9.74;61.22;101494.25;4987344;28;113107;-71
2023/01/30 03:59:43;;;;;;;30.27;18.48;;;;;;;9.75;61.19;101492.47;4982266;28;123204;-72
2023/01/30 04:02:13;;;;;;;29.98;17.17;;;;;;;9.74;61.08;101494.25;4994941;28;122870;-72
2023/01/30 04:04:43;;;;;;;32.58;19.30;;;;;;;9.75;61.29;101497.75;4969714;28;113475;-72
2023/01/30 04:07:10;;;;;;;28.92;18.27;;;;;;;9.74;61.42;101499.53;4977521;28;113167;-72
2023/01/30 04:09:39;;;;;;;32.53;18.38;;;;;;;9.75;61.34;101505.69;4980743;28;123911;-72
2023/01/30 04:12:06;;;;;;;30.08;17.92;;;;;;;9.75;61.49;101505.69;4953827;28;123035;-71
2023/01/30 04:14:39;;;;;;;30.55;17.50;;;;;;;9.74;61.66;101496.88;4993519;28;116544;-71
2023/01/30 04:17:39;;;;;;;31.58;17.65;;;;;;;9.74;61.84;101503.97;4962905;28;115308;-72
2023/01/30 04:20:37;;;;;;;26.02;16.65;;;;;;;9.75;61.62;101497.75;4993330;28;122799;-71
2023/01/30 04:23:05;;;;;;;28.13;17.40;;;;;;;9.75;61.47;101503.03;4990513;28;123271;-72
2023/01/30 04:25:32;;;;;;;27.48;16.35;;;;;;;9.76;61.84;101491.56;4977494;28;112660;-72
2023/01/30 04:27:59;;;;;;;27.95;17.05;;;;;;;9.79;61.72;101487.94;4977679;28;114103;-72
2023/01/30 04:30:31;;;;;;;28.35;15.32;;;;;;;9.80;61.76;101493.19;4999937;28;122827;-72
2023/01/30 04:33:25;;;;;;;25.48;14.80;;;;;;;9.82;62.06;101486.06;4946856;28;124957;-72
2023/01/30 04:35:58;;;;;;;21.98;13.52;;;;;;;9.83;62.24;101482.53;4969622;28;113727;-72
2023/01/30 04:38:26;;;;;;;21.63;13.90;;;;;;;9.85;61.99;101480.69;4979966;28;113744;-72
2023/01/30 04:40:56;;;;;;;23.42;13.43;;;;;;;9.88;62.16;101490.28;4966757;28;122364;-72
2023/01/30 04:43:26;;;;;;;18.95;12.02;;;;;;;9.89;62.15;101498.19;4979989;28;123079;-72
2023/01/30 04:46:15;;;;;;;18.27;11.45;;;;;;;9.91;62.19;101491.06;4981658;28;113596;-72
2023/01/30 04:48:42;;;;;;;22.45;10.98;;;;;;;9.96;62.07;101488.25;4955071;28;113558;-72
2023/01/30 04:51:10;;;;;;;17.75;10.02;;;;;;;9.99;62.35;101487.31;4968718;28;123271;-72
2023/01/30 04:53:38;;;;;;;18.90;8.70;;;;;;;10.01;62.37;101511.94;4974906;28;123080;-72
2023/01/30 04:56:06;;;;;;;15.05;8.73;;;;;;;10.05;62.51;101497.69;4980983;28;113728;-72
2023/01/30 04:58:33;;;;;;;17.38;8.82;;;;;;;10.10;62.32;101490.47;4968218;28;114351;-72
2023/01/30 05:01:21;;;;;;;20.80;8.02;;;;;;;10.12;62.67;101492.16;4969041;28;124130;-72
2023/01/30 05:03:51;;;;;;;16.30;7.97;;;;;;;10.16;62.68;101503.50;4963504;28;123645;-72
2023/01/30 05:06:19;;;;;;;12.50;7.75;;;;;;;10.20;62.41;101502.47;4976687;28;116227;-72
2023/01/30 05:08:54;;;;;;;14.90;7.35;;;;;;;10.23;62.68;101502.41;4961112;28;114817;-73
2023/01/30 05:11:23;;;;;;;15.43;7.70;;;;;;;10.28;62.49;101495.16;4985913;28;123260;-72
2023/01/30 05:13:51;;;;;;;14.23;7.60;;;;;;;10.31;62.54;101487.13;4963917;28;124219;-72
2023/01/30 05:16:20;;;;;;;16.77;7.10;;;;;;;10.33;62.39;101485.31;4966302;28;113884;-72
2023/01/30 05:18:48;;;;;;;14.20;7.05;;;;;;;10.37;62.47;101477.28;4964485;28;114271;-72
2023/01/30 05:21:21;;;;;;;14.95;6.47;;;;;;;10.41;62.72;101478.88;4969559;28;123173;-72
2023/01/30 05:23:49;;;;;;;13.95;7.88;;;;;;;10.45;62.68;101491.09;4976020;28;123431;-72
2023/01/30 05:26:17;;;;;;;15.73;7.45;;;;;;;10.47;62.35;101486.63;4981584;28;114696;-72
2023/01/30 05:28:50;;;;;;;14.68;7.20;;;;;;;10.49;62.67;101487.44;4967010;28;113870;-72
2023/01/30 05:31:17;;;;;;;15.43;6.68;;;;;;;10.53;62.63;101478.47;4964484;28;124374;-72
2023/01/30 05:33:47;;;;;;;12.93;6.40;;;;;;;10.54;62.67;101480.19;4961448;28;124635;-72
2023/01/30 05:36:16;;;;;;;16.70;6.53;;;;;;;10.57;62.31;101500.41;4959316;28;114517;-72
2023/01/30 05:38:44;;;;;;;14.00;6.28;;;;;;;10.58;62.50;101487.09;4961983;28;114632;-72
2023/01/30 05:41:13;;;;;;;15.50;6.22;;;;;;;10.60;62.38;101485.28;4983693;28;124240;-72
2023/01/30 05:43:41;;;;;;;15.40;6.03;;;;;;;10.61;62.71;101491.47;4976298;28;122938;-72
2023/01/30 05:46:10;;;;;;;12.70;5.53;;;;;;;10.64;62.25;101497.53;4966219;28;114094;-73
2023/01/30 05:48:37;;;;;;;14.35;6.07;;;;;;;10.63;62.19;101487.81;4965323;28;114471;-73
2023/01/30 05:51:04;;;;;;;14.77;5.47;;;;;;;10.63;61.93;101495.78;4957284;28;124262;-73
2023/01/30 05:53:36;;;;;;;13.98;5.22;;;;;;;10.64;62.30;101502.81;4954409;28;123472;-72
2023/01/30 05:56:04;;;;;;;10.55;4.50;;;;;;;10.63;62.04;101501.06;4979379;28;115485;-71
2023/01/30 05:58:32;;;;;;;12.32;4.75;;;;;;;10.63;62.11;101490.47;4963236;28;115196;-72
2023/01/30 06:01:01;;;;;;;11.60;4.50;;;;;;;10.62;61.91;101501.97;4974470;28;123902;-72
2023/01/30 06:03:28;;;;;;;11.88;3.80;;;;;;;10.63;61.74;101510.81;4949158;28;123026;-72
2023/01/30 06:05:56;;;;;;;15.98;3.80;;;;;;;10.64;61.95;101521.34;4978815;28;114476;-73
2023/01/30 06:08:23;;;;;;;9.27;4.00;;;;;;;10.64;61.81;101502.81;4957144;28;113857;-72
2023/01/30 06:10:50;;;;;;;13.38;3.97;;;;;;;10.64;61.74;101513.41;4974137;28;123159;-73
2023/01/30 06:13:17;;;;;;;12.75;3.85;;;;;;;10.64;61.74;101510.75;4963168;28;123892;-72
2023/01/30 06:15:45;;;;;;;13.88;3.38;;;;;;;10.66;61.88;101505.38;4969031;28;114050;-72
2023/01/30 06:18:12;;;;;;;11.55;4.20;;;;;;;10.66;61.67;101511.56;4961901;28;114233;-73
2023/01/30 06:20:39;;;;;;;11.25;3.25;;;;;;;10.67;61.76;101517.72;4966509;28;124386;-72
2023/01/30 06:23:06;;;;;;;12.43;3.15;;;;;;;10.66;61.52;101516.88;4958413;28;124132;-72
2023/01/30 06:25:33;;;;;;;8.05;2.72;;;;;;;10.67;61.36;101529.19;4977255;28;113490;-72
2023/01/30 06:28:00;;;;;;;11.23;3.10;;;;;;;10.66;61.18;101532.75;4964532;28;114120;-71
2023/01/30 06:30:30;;;;;;;10.25;3.72;;;;;;;10.67;61.39;101529.19;4956279;28;124065;-73
2023/01/30 06:32:57;;;;;;;8.27;2.50;;;;;;;10.65;61.27;101541.63;4971602;28;123493;-73
2023/01/30 06:35:24;;;;;;;9.15;3.03;;;;;;;10.65;61.28;101551.34;4961107;28;115350;-72
2023/01/30 06:37:51;;;;;;;9.73;2.60;;;;;;;10.64;61.13;101553.16;4967404;28;114623;-72
2023/01/30 06:40:18;;;;;;;8.60;2.42;;;;;;;10.63;61.23;101559.34;4962881;28;123732;-72
2023/01/30 06:42:47;;;;;;;9.95;2.20;;;;;;;10.62;61.10;101562.91;4962485;28;125980;-72
2023/01/30 06:45:16;;;;;;;9.75;2.50;;;;;;;10.61;60.93;101560.31;4964347;28;115233;-72
2023/01/30 06:47:51;;;;;;;8.70;2.58;;;;;;;10.58;60.95;101555.97;4973171;28;114423;-72
2023/01/30 06:50:22;;;;;;;10.70;2.27;;;;;;;10.56;60.81;101547.22;4981605;28;123651;-72
2023/01/30 06:52:50;;;;;;;8.25;2.47;;;;;;;10.54;60.79;101553.50;4968636;28;123073;-72
2023/01/30 06:55:19;;;;;;;11.93;2.90;;;;;;;10.52;60.35;101556.19;4958183;28;114328;-72
2023/01/30 06:57:48;;;;;;;7.75;2.00;;;;;;;10.48;60.51;101554.56;4959838;28;113852;-72
2023/01/30 07:00:19;;;;;;;9.32;2.33;;;;;;;10.45;60.39;101544.06;4959835;28;123602;-72
2023/01/30 07:02:46;;;;;;;12.05;2.63;;;;;;;10.40;60.21;101536.28;4963646;28;122330;-71
2023/01/30 07:05:13;;;;;;;9.82;2.25;;;;;;;10.38;60.33;101545.19;4960263;28;114830;-72
2023/01/30 07:07:40;;;;;;;9.75;2.22;;;;;;;10.35;60.10;101548.81;4957670;28;113632;-72
2023/01/30 07:10:10;;;;;;;10.30;1.80;;;;;;;10.33;59.93;101550.63;4959079;28;124247;-72
2023/01/30 07:12:38;;;;;;;8.60;2.30;;;;;;;10.29;59.72;101549.84;4972906;28;123271;-72
2023/01/30 07:15:06;;;;;;;9.00;2.33;;;;;;;10.26;59.71;101544.63;4978738;28;114306;-72
2023/01/30 07:17:33;;;;;;;8.43;1.65;;;;;;;10.23;59.79;101554.47;4975410;28;114594;-72
2023/01/30 07:20:03;;;;;;;10.73;2.00;;;;;;;10.20;59.57;101549.28;4978886;28;124819;-72
2023/01/30 07:22:30;;;;;;;10.15;1.98;;;;;;;10.16;59.44;101556.44;4958430;28;124511;-72
2023/01/30 07:24:57;;;;;;;5.95;1.40;;;;;;;10.13;59.43;101559.19;4970026;28;113681;-72
2023/01/30 07:27:24;;;;;;;7.35;1.42;;;;;;;10.09;59.57;101558.41;4967096;28;114140;-72
2023/01/30 07:29:52;;;;;;;6.22;1.70;;;;;;;10.07;59.44;101556.72;4965572;28;123693;-72
2023/01/30 07:32:19;;;;;;;5.88;1.85;;;;;;;10.04;59.41;101559.47;4958129;28;123123;-72
2023/01/30 07:34:46;;;;;;;9.07;1.73;;;;;;;10.01;59.39;101576.31;4966254;28;115166;-72
2023/01/30 07:37:14;;;;;;;7.63;1.77;;;;;;;10.00;59.51;101576.34;4965254;28;114263;-72
2023/01/30 07:39:41;;;;;;;8.15;1.65;;;;;;;9.98;59.39;101586.13;4962844;28;124788;-72
2023/01/30 07:42:08;;;;;;;17.73;1.88;;;;;;;9.96;59.61;101582.66;4955474;28;124689;-72
2023/01/30 07:44:35;;;;;;;6.35;1.50;;;;;;;9.93;59.57;101584.50;4967111;28;114296;-72
2023/01/30 07:47:02;;;;;;;6.57;1.48;;;;;;;9.92;59.59;101577.44;4954264;28;113953;-72
2023/01/30 07:49:29;;;;;;;8.98;1.70;;;;;;;9.91;59.36;101586.31;4961524;28;125030;-72
2023/01/30 07:51:57;;;;;;;10.52;1.45;;;;;;;9.91;59.41;101586.31;4980553;28;124133;-72
2023/01/30 07:54:25;;;;;;;9.15;1.50;;;;;;;9.89;59.37;101580.22;4966816;28;114828;-72
2023/01/30 07:56:52;;;;;;;5.93;1.55;;;;;;;9.89;59.52;101593.44;4955827;28;114638;-73
2023/01/30 07:59:19;;;;;;;10.77;1.85;;;;;;;9.88;59.47;101602.28;4958910;28;124039;-72
2023/01/30 08:01:46;;;;;;;6.82;1.40;;;;;;;9.86;59.32;101604.09;4968100;28;124406;-73
2023/01/30 08:04:13;;;;;;;9.82;1.60;;;;;;;9.87;59.48;101600.56;4958901;28;114262;-72
2023/01/30 08:06:41;;;;;;;7.45;1.60;;;;;;;9.87;59.27;101599.66;4959622;28;113608;-73
2023/01/30 08:09:08;;;;;;;9.48;1.63;;;;;;;9.86;59.01;101597.97;4957833;28;124169;-73
2023/01/30 08:11:35;;;;;;;11.65;1.63;;;;;;;9.84;59.18;101600.66;4978213;28;124250;-73
2023/01/30 08:14:02;;;;;;;8.48;1.80;;;;;;;9.84;59.31;101616.50;4960441;28;113939;-73
2023/01/30 08:16:31;;;;;;;12.70;1.95;;;;;;;9.83;59.17;101606.88;4959278;28;113744;-73
2023/01/30 08:18:58;;;;;;;8.45;1.48;;;;;;;9.84;59.15;101605.94;4959517;28;123182;-72
2023/01/30 08:21:25;;;;;;;6.78;1.65;;;;;;;9.82;59.14;101607.75;4958176;28;123112;-73
2023/01/30 08:23:52;;;;;;;5.20;1.40;;;;;;;9.82;59.31;101613.06;4958147;28;115190;-73
2023/01/30 08:26:20;;;;;;;7.13;1.67;;;;;;;9.83;59.12;101620.09;4978512;28;114332;-72
2023/01/30 08:28:47;;;;;;;11.38;1.80;;;;;;;9.83;59.06;101613.91;4975548;28;123113;-72
2023/01/30 08:31:15;;;;;;;11.40;2.10;;;;;;;9.83;59.01;101614.81;4970327;28;122990;-73
2023/01/30 08:33:43;;;;;;;12.57;1.80;;;;;;;9.83;59.06;101609.50;4964462;28;114186;-73
2023/01/30 08:36:10;;;;;;;10.93;1.85;;;;;;;9.84;58.85;101615.66;4958812;28;113710;-73
2023/01/30 08:38:37;;;;;;;10.65;1.50;;;;;;;9.83;58.71;101619.19;4956388;28;124183;-73
2023/01/30 08:41:07;;;;;;;6.55;1.83;;;;;;;9.84;58.85;101631.53;4968001;28;123886;-73
2023/01/30 08:43:34;;;;;;;10.30;1.70;;;;;;;9.85;58.90;101628.84;4976719;28;114317;-73
2023/01/30 08:46:02;;;;;;;12.38;1.65;;;;;;;9.87;58.82;101627.03;4967054;28;114471;-72
2023/01/30 08:48:29;;;;;;;8.30;1.70;;;;;;;9.88;58.66;101634.03;4964486;28;124745;-73
2023/01/30 08:51:14;;;;;;;6.38;1.50;;;;;;;9.89;58.56;101641.06;4970898;28;124433;-73
2023/01/30 08:53:41;;;;;;;10.38;1.77;;;;;;;9.91;58.78;101639.25;4962193;28;114598;-73
2023/01/30 08:56:09;;;;;;;7.47;1.70;;;;;;;9.93;58.45;101642.72;4967467;28;113989;-72
2023/01/30 08:58:36;;;;;;;9.27;1.38;;;;;;;9.96;58.48;101654.97;4980684;28;124125;-73
2023/01/30 09:01:06;;;;;;;10.52;2.17;;;;;;;9.97;58.48;101658.50;4970598;28;123151;-73
2023/01/30 09:03:34;;;;;;;9.05;1.35;;;;;;;10.00;58.42;101658.41;4979646;28;113855;-72
2023/01/30 09:06:01;;;;;;;8.10;1.83;;;;;;;10.01;58.19;101660.16;4991226;28;113227;-72
2023/01/30 09:08:28;;;;;;;9.30;1.70;;;;;;;10.02;58.11;101652.16;4969602;28;123491;-73
2023/01/30 09:11:00;;;;;;;5.55;1.38;;;;;;;10.05;57.99;101661.78;4970035;28;122483;-73
2023/01/30 09:13:28;;;;;;;5.57;1.60;;;;;;;10.08;58.08;101656.41;4962931;28;115172;-75
2023/01/30 09:15:56;;;;;;;13.02;2.13;;;;;;;10.10;57.98;101665.16;4985919;28;114689;-73
2023/01/30 09:18:24;;;;;;;6.18;1.52;;;;;;;10.12;58.14;101668.63;4985561;28;124056;-73
2023/01/30 09:20:51;;;;;;;12.48;1.67;;;;;;;10.15;57.89;101673.81;4985608;28;124066;-73
2023/01/30 09:23:19;;;;;;;11.45;1.90;;;;;;;10.17;57.90;101677.31;4971419;28;114306;-73
2023/01/30 09:25:46;;;;;;;8.27;1.80;;;;;;;10.20;57.98;101677.19;4956782;28;114581;-73
2023/01/30 09:28:13;;;;;;;11.60;1.77;;;;;;;10.24;57.76;101683.28;4969480;28;123225;-73
2023/01/30 09:30:41;;;;;;;12.20;2.00;;;;;;;10.28;57.84;101680.50;4986559;28;124150;-73
2023/01/30 09:33:08;;;;;;;14.85;1.90;;;;;;;10.36;57.80;101671.47;4971251;28;114943;-73
2023/01/30 09:35:35;;;;;;;9.82;2.15;;;;;;;10.44;57.79;101682.72;4969744;28;114075;-73
2023/01/30 09:38:04;;;;;;;9.40;1.30;;;;;;;10.50;57.92;101701.06;4970600;28;124239;-72
2023/01/30 09:40:38;;;;;;;8.70;1.45;;;;;;;10.59;57.50;101694.59;4969097;28;123947;-72
2023/01/30 09:43:17;;;;;;;8.00;1.58;;;;;;;10.62;57.62;101684.75;4983073;28;113669;-73
2023/01/30 09:46:07;;;;;;;10.93;1.70;;;;;;;10.67;57.17;101696.09;4964910;28;114723;-73
2023/01/30 09:48:44;;;;;;;11.27;1.67;;;;;;;10.71;57.42;101695.06;4977515;28;123121;-73
2023/01/30 09:51:31;;;;;;;10.25;1.48;;;;;;;10.75;57.14;101695.84;4972578;28;124325;-73
2023/01/30 09:54:19;;;;;;;11.05;1.67;;;;;;;10.79;57.07;101696.59;4969483;28;114221;-73
2023/01/30 09:57:09;;;;;;;12.43;1.67;;;;;;;10.83;57.26;101698.22;4956776;28;114172;-73
2023/01/30 09:59:56;;;;;;;11.25;1.63;;;;;;;10.87;56.89;101689.28;4970113;28;124244;-73
2023/01/30 10:02:40;;;;;;;8.65;1.38;;;;;;;10.89;56.90;101692.75;4970195;28;123673;-73
2023/01/30 10:05:08;;;;;;;7.90;1.73;;;;;;;10.93;56.87;101699.69;4952991;28;114469;-74
2023/01/30 10:07:53;;;;;;;9.82;1.63;;;;;;;10.96;56.88;101704.88;4962985;28;114902;-73
2023/01/30 10:10:34;;;;;;;14.82;1.75;;;;;;;10.98;56.74;101718.97;4969583;28;124049;-73
2023/01/30 10:13:20;;;;;;;10.23;1.52;;;;;;;11.01;56.49;101718.84;4959954;28;124128;-73
2023/01/30 10:16:00;;;;;;;6.18;1.60;;;;;;;11.03;56.62;101722.31;4985099;28;114241;-73
2023/01/30 10:18:42;;;;;;;6.03;1.27;;;;;;;11.04;56.58;101724.06;4968818;28;113690;-73
2023/01/30 10:21:40;;;;;;;6.88;1.85;;;;;;;11.05;56.49;101715.16;4989207;28;123982;-73
2023/01/30 10:24:21;;;;;;;7.55;1.73;;;;;;;11.08;56.41;101709.78;4968377;28;123876;-73
2023/01/30 10:26:48;;;;;;;13.00;1.90;;;;;;;11.12;55.91;101709.69;4970816;28;114435;-73
2023/01/30 10:29:22;;;;;;;8.00;1.85;;;;;;;11.14;56.28;101719.31;4970725;28;114233;-73
2023/01/30 10:31:57;;;;;;;6.35;1.30;;;;;;;11.18;56.17;101714.78;4969162;28;124022;-73
2023/01/30 10:34:28;;;;;;;;;;;;;;;11.21;56.44;101704.09;4968603;28;124027;-73
2023/01/30 10:37:03;;;;;;;7.88;1.45;;;;;;;11.27;56.27;101727.72;4975699;28;113456;-72
2023/01/30 10:39:38;;;;;;;;;;;;;;;11.29;56.49;101723.25;4962537;28;114964;-73
2023/01/30 10:42:28;;;;;;;9.25;1.42;;;;;;;11.32;56.21;101720.50;4965753;28;124745;-73
2023/01/30 10:45:05;;;;;;;10.52;1.50;;;;;;;11.33;55.70;101734.63;4968874;28;124062;-73
2023/01/30 10:48:10;;;;;;;9.63;1.55;;;;;;;11.32;55.82;101741.72;4970078;28;113410;-74
2023/01/30 10:51:07;;;;;;;11.17;1.77;;;;;;;11.32;55.75;101744.38;4970163;28;114007;-72
2023/01/30 10:53:56;;;;;;;11.90;1.70;;;;;;;11.32;55.84;101746.13;4947436;28;124338;-72
2023/01/30 10:56:38;;;;;;;8.10;1.20;;;;;;;11.33;55.82;101730.16;4975940;28;123622;-71
2023/01/30 10:59:21;;;;;;;9.10;1.60;;;;;;;11.33;55.64;101735.47;4963956;28;114495;-74
2023/01/30 11:02:06;;;;;;;7.57;1.45;;;;;;;11.32;55.52;101733.75;4969330;28;114571;-73
2023/01/30 11:04:44;;;;;;;10.30;1.67;;;;;;;11.34;55.70;101731.91;4956880;28;123805;-73
2023/01/30 11:07:12;;;;;;;11.43;1.75;;;;;;;11.37;55.50;101731.78;4954710;28;124055;-73
2023/01/30 11:09:45;;;;;;;7.85;1.73;;;;;;;11.41;55.44;101733.41;4970972;28;113869;-74
2023/01/30 11:12:13;;;;;;;14.60;1.77;;;;;;;11.44;55.42;101721.84;4958630;28;114224;-73
2023/01/30 11:15:05;;;;;;;9.95;1.50;;;;;;;11.45;55.26;101739.47;4967115;28;97526;-73
2023/01/30 11:17:35;;;;;;;9.57;1.50;;;;;;;11.46;55.44;101723.50;4960813;28;123991;-74
2023/01/30 11:20:19;;;;;;;10.75;1.65;;;;;;;11.47;55.22;101717.31;4952952;28;114334;-73
2023/01/30 11:23:08;;;;;;;10.57;1.93;;;;;;;11.47;55.10;101722.63;4957224;28;113312;-73
2023/01/30 11:25:50;;;;;;;6.78;1.40;;;;;;;11.49;55.23;101741.13;4968287;28;123563;-73
2023/01/30 11:28:41;;;;;;;18.05;2.25;;;;;;;11.53;55.03;101741.88;4961780;28;125093;-73
2023/01/30 11:31:33;;;;;;;6.15;1.40;;;;;;;11.55;54.89;101740.06;4960551;28;115100;-73
2023/01/30 11:34:14;;;;;;;10.25;1.77;;;;;;;11.57;55.05;101738.22;4969800;28;113552;-74
2023/01/30 11:36:42;;;;;;;7.53;1.40;;;;;;;11.59;55.07;101741.69;4959456;28;123750;-74
2023/01/30 11:39:12;;;;;;;12.05;1.80;;;;;;;11.60;54.88;101738.97;4952332;28;124066;-73
2023/01/30 11:41:52;;;;;;;8.75;1.75;;;;;;;11.62;54.85;101746.84;4959945;28;114747;-74
2023/01/30 11:44:26;;;;;;;10.05;1.58;;;;;;;11.62;54.78;101736.25;4969738;28;114290;-73